sensor_id;sensor_type;location;lat;lon;timestamp;P1;durP1;ratioP1;P2;durP2;ratioP2
39078;SDS011;24829;49.208;12.080;2024-02-21T00:01:35;11.73;;;3.58;;
39078;SDS011;24829;49.208;12.080;2024-02-21T00:04:01;17.10;;;4.22;;
39078;SDS011;24829;49.208;12.080;2024-02-21T00:06:26;12.85;;;3.70;;
39078;SDS011;24829;49.208;12.080;2024-02-21T00:08:52;16.58;;;3.55;;
39078;SDS011;24829;49.208;12.080;2024-02-21T00:11:18;8.35;;;3.15;;
39078;SDS011;24829;49.208;12.080;2024-02-21T00:13:43;12.32;;;3.25;;
39078;SDS011;24829;49.208;12.080;2024-02-21T00:16:09;15.98;;;3.35;;
39078;SDS011;24829;49.208;12.080;2024-02-21T00:18:36;11.52;;;3.90;;
39078;SDS011;24829;49.208;12.080;2024-02-21T00:21:01;12.32;;;3.28;;
39078;SDS011;24829;49.208;12.080;2024-02-21T00:23:28;15.90;;;4.25;;
39078;SDS011;24829;49.208;12.080;2024-02-21T00:25:53;12.75;;;3.33;;
39078;SDS011;24829;49.208;12.080;2024-02-21T00:28:19;12.90;;;3.65;;
39078;SDS011;24829;49.208;12.080;2024-02-21T00:30:45;13.95;;;3.90;;
39078;SDS011;24829;49.208;12.080;2024-02-21T00:33:13;14.65;;;4.00;;
39078;SDS011;24829;49.208;12.080;2024-02-21T00:35:39;13.77;;;3.47;;
39078;SDS011;24829;49.208;12.080;2024-02-21T00:38:04;13.63;;;3.88;;
39078;SDS011;24829;49.208;12.080;2024-02-21T00:40:30;13.55;;;3.22;;
39078;SDS011;24829;49.208;12.080;2024-02-21T00:42:56;20.02;;;3.72;;
39078;SDS011;24829;49.208;12.080;2024-02-21T00:45:21;17.55;;;4.07;;
39078;SDS011;24829;49.208;12.080;2024-02-21T00:47:47;12.55;;;3.60;;
39078;SDS011;24829;49.208;12.080;2024-02-21T00:50:12;11.10;;;3.25;;
39078;SDS011;24829;49.208;12.080;2024-02-21T00:52:38;8.50;;;3.38;;
39078;SDS011;24829;49.208;12.080;2024-02-21T00:55:04;11.05;;;2.80;;
39078;SDS011;24829;49.208;12.080;2024-02-21T00:57:30;9.98;;;3.05;;
39078;SDS011;24829;49.208;12.080;2024-02-21T00:59:56;16.92;;;4.22;;
39078;SDS011;24829;49.208;12.080;2024-02-21T01:02:22;10.85;;;3.13;;
39078;SDS011;24829;49.208;12.080;2024-02-21T01:04:48;9.80;;;3.25;;
39078;SDS011;24829;49.208;12.080;2024-02-21T01:07:13;14.20;;;3.33;;
39078;SDS011;24829;49.208;12.080;2024-02-21T01:09:39;10.07;;;3.60;;
39078;SDS011;24829;49.208;12.080;2024-02-21T01:12:05;12.98;;;3.08;;
39078;SDS011;24829;49.208;12.080;2024-02-21T01:14:30;15.13;;;3.00;;
39078;SDS011;24829;49.208;12.080;2024-02-21T01:16:56;12.93;;;3.35;;
39078;SDS011;24829;49.208;12.080;2024-02-21T01:19:22;10.48;;;3.30;;
39078;SDS011;24829;49.208;12.080;2024-02-21T01:21:48;16.50;;;3.03;;
39078;SDS011;24829;49.208;12.080;2024-02-21T01:24:13;11.98;;;3.22;;
39078;SDS011;24829;49.208;12.080;2024-02-21T01:26:39;10.48;;;2.70;;
39078;SDS011;24829;49.208;12.080;2024-02-21T01:29:05;10.65;;;3.58;;
39078;SDS011;24829;49.208;12.080;2024-02-21T01:31:31;10.00;;;2.97;;
39078;SDS011;24829;49.208;12.080;2024-02-21T01:33:56;9.70;;;3.53;;
39078;SDS011;24829;49.208;12.080;2024-02-21T01:36:23;14.30;;;3.53;;
39078;SDS011;24829;49.208;12.080;2024-02-21T01:38:48;9.60;;;2.50;;
39078;SDS011;24829;49.208;12.080;2024-02-21T01:41:14;8.20;;;2.63;;
39078;SDS011;24829;49.208;12.080;2024-02-21T01:43:41;17.40;;;2.85;;
39078;SDS011;24829;49.208;12.080;2024-02-21T01:46:07;10.98;;;2.90;;
39078;SDS011;24829;49.208;12.080;2024-02-21T01:48:32;11.73;;;2.58;;
39078;SDS011;24829;49.208;12.080;2024-02-21T01:50:59;12.98;;;3.38;;
39078;SDS011;24829;49.208;12.080;2024-02-21T01:53:35;11.80;;;3.03;;
39078;SDS011;24829;49.208;12.080;2024-02-21T01:56:05;13.70;;;3.63;;
39078;SDS011;24829;49.208;12.080;2024-02-21T01:58:32;9.00;;;3.25;;
39078;SDS011;24829;49.208;12.080;2024-02-21T02:01:02;10.90;;;3.08;;
39078;SDS011;24829;49.208;12.080;2024-02-21T02:03:28;10.48;;;3.10;;
39078;SDS011;24829;49.208;12.080;2024-02-21T02:05:55;13.73;;;2.83;;
39078;SDS011;24829;49.208;12.080;2024-02-21T02:08:20;14.82;;;3.53;;
39078;SDS011;24829;49.208;12.080;2024-02-21T02:10:49;13.70;;;3.20;;
39078;SDS011;24829;49.208;12.080;2024-02-21T02:13:15;10.93;;;3.15;;
39078;SDS011;24829;49.208;12.080;2024-02-21T02:15:47;11.43;;;3.38;;
39078;SDS011;24829;49.208;12.080;2024-02-21T02:18:14;9.00;;;2.60;;
39078;SDS011;24829;49.208;12.080;2024-02-21T02:20:41;16.50;;;3.35;;
39078;SDS011;24829;49.208;12.080;2024-02-21T02:25:45;14.45;;;3.72;;
39078;SDS011;24829;49.208;12.080;2024-02-21T02:28:14;11.18;;;3.28;;
39078;SDS011;24829;49.208;12.080;2024-02-21T02:30:40;13.25;;;4.00;;
39078;SDS011;24829;49.208;12.080;2024-02-21T02:33:05;8.20;;;2.95;;
39078;SDS011;24829;49.208;12.080;2024-02-21T02:35:31;11.20;;;3.10;;
39078;SDS011;24829;49.208;12.080;2024-02-21T02:37:57;13.38;;;2.90;;
39078;SDS011;24829;49.208;12.080;2024-02-21T02:40:23;10.90;;;2.97;;
39078;SDS011;24829;49.208;12.080;2024-02-21T02:42:48;13.65;;;3.88;;
39078;SDS011;24829;49.208;12.080;2024-02-21T02:45:15;11.80;;;3.15;;
39078;SDS011;24829;49.208;12.080;2024-02-21T02:47:41;10.05;;;3.80;;
39078;SDS011;24829;49.208;12.080;2024-02-21T02:50:07;10.95;;;3.13;;
39078;SDS011;24829;49.208;12.080;2024-02-21T02:52:33;11.18;;;3.38;;
39078;SDS011;24829;49.208;12.080;2024-02-21T02:54:58;9.68;;;2.67;;
39078;SDS011;24829;49.208;12.080;2024-02-21T02:57:24;12.30;;;3.00;;
39078;SDS011;24829;49.208;12.080;2024-02-21T02:59:50;16.17;;;3.70;;
39078;SDS011;24829;49.208;12.080;2024-02-21T03:02:16;7.72;;;2.60;;
39078;SDS011;24829;49.208;12.080;2024-02-21T03:04:43;11.40;;;2.88;;
39078;SDS011;24829;49.208;12.080;2024-02-21T03:07:09;12.13;;;3.58;;
39078;SDS011;24829;49.208;12.080;2024-02-21T03:09:36;13.35;;;3.00;;
39078;SDS011;24829;49.208;12.080;2024-02-21T03:12:02;10.90;;;3.20;;
39078;SDS011;24829;49.208;12.080;2024-02-21T03:14:29;11.50;;;3.00;;
39078;SDS011;24829;49.208;12.080;2024-02-21T03:16:54;11.15;;;2.92;;
39078;SDS011;24829;49.208;12.080;2024-02-21T03:19:21;15.23;;;3.58;;
39078;SDS011;24829;49.208;12.080;2024-02-21T03:21:47;11.82;;;3.22;;
39078;SDS011;24829;49.208;12.080;2024-02-21T03:24:14;11.05;;;3.88;;
39078;SDS011;24829;49.208;12.080;2024-02-21T03:26:48;13.68;;;3.13;;
39078;SDS011;24829;49.208;12.080;2024-02-21T03:29:15;12.07;;;3.28;;
39078;SDS011;24829;49.208;12.080;2024-02-21T03:31:41;15.90;;;3.75;;
39078;SDS011;24829;49.208;12.080;2024-02-21T03:34:07;13.10;;;3.47;;
39078;SDS011;24829;49.208;12.080;2024-02-21T03:36:34;13.65;;;3.42;;
39078;SDS011;24829;49.208;12.080;2024-02-21T03:39:00;15.05;;;3.70;;
39078;SDS011;24829;49.208;12.080;2024-02-21T03:41:26;16.45;;;4.53;;
39078;SDS011;24829;49.208;12.080;2024-02-21T03:43:51;11.95;;;3.55;;
39078;SDS011;24829;49.208;12.080;2024-02-21T03:46:17;14.25;;;3.58;;
39078;SDS011;24829;49.208;12.080;2024-02-21T03:48:43;10.13;;;3.85;;
39078;SDS011;24829;49.208;12.080;2024-02-21T03:51:08;10.30;;;3.50;;
39078;SDS011;24829;49.208;12.080;2024-02-21T03:53:34;17.67;;;5.03;;
39078;SDS011;24829;49.208;12.080;2024-02-21T03:56:03;16.23;;;4.18;;
39078;SDS011;24829;49.208;12.080;2024-02-21T03:58:32;16.48;;;4.40;;
39078;SDS011;24829;49.208;12.080;2024-02-21T04:01:01;11.95;;;3.72;;
39078;SDS011;24829;49.208;12.080;2024-02-21T04:03:28;15.50;;;3.92;;
39078;SDS011;24829;49.208;12.080;2024-02-21T04:05:54;22.17;;;4.05;;
39078;SDS011;24829;49.208;12.080;2024-02-21T04:08:20;11.30;;;3.40;;
39078;SDS011;24829;49.208;12.080;2024-02-21T04:10:45;18.42;;;4.05;;
39078;SDS011;24829;49.208;12.080;2024-02-21T04:13:12;10.80;;;4.85;;
39078;SDS011;24829;49.208;12.080;2024-02-21T04:15:37;13.93;;;4.38;;
39078;SDS011;24829;49.208;12.080;2024-02-21T04:18:03;10.23;;;4.20;;
39078;SDS011;24829;49.208;12.080;2024-02-21T04:20:28;11.13;;;4.57;;
39078;SDS011;24829;49.208;12.080;2024-02-21T04:22:54;11.55;;;4.15;;
39078;SDS011;24829;49.208;12.080;2024-02-21T04:25:20;19.95;;;5.15;;
39078;SDS011;24829;49.208;12.080;2024-02-21T04:27:46;20.85;;;4.70;;
39078;SDS011;24829;49.208;12.080;2024-02-21T04:30:12;17.02;;;4.20;;
39078;SDS011;24829;49.208;12.080;2024-02-21T04:32:38;16.58;;;4.20;;
39078;SDS011;24829;49.208;12.080;2024-02-21T04:35:04;16.65;;;4.38;;
39078;SDS011;24829;49.208;12.080;2024-02-21T04:37:30;14.60;;;4.53;;
39078;SDS011;24829;49.208;12.080;2024-02-21T04:39:56;14.15;;;4.68;;
39078;SDS011;24829;49.208;12.080;2024-02-21T04:42:22;15.68;;;5.40;;
39078;SDS011;24829;49.208;12.080;2024-02-21T04:44:47;16.77;;;4.50;;
39078;SDS011;24829;49.208;12.080;2024-02-21T04:47:13;12.98;;;4.63;;
39078;SDS011;24829;49.208;12.080;2024-02-21T04:49:39;18.02;;;5.32;;
39078;SDS011;24829;49.208;12.080;2024-02-21T04:52:05;14.13;;;4.50;;
39078;SDS011;24829;49.208;12.080;2024-02-21T04:54:30;20.38;;;4.85;;
39078;SDS011;24829;49.208;12.080;2024-02-21T04:56:56;13.68;;;4.90;;
39078;SDS011;24829;49.208;12.080;2024-02-21T04:59:21;17.20;;;5.90;;
39078;SDS011;24829;49.208;12.080;2024-02-21T05:01:47;17.33;;;5.70;;
39078;SDS011;24829;49.208;12.080;2024-02-21T05:04:13;27.40;;;6.35;;
39078;SDS011;24829;49.208;12.080;2024-02-21T05:06:41;17.98;;;5.80;;
39078;SDS011;24829;49.208;12.080;2024-02-21T05:09:07;19.50;;;6.07;;
39078;SDS011;24829;49.208;12.080;2024-02-21T05:11:34;7.93;;;4.40;;
39078;SDS011;24829;49.208;12.080;2024-02-21T05:14:00;15.88;;;4.90;;
39078;SDS011;24829;49.208;12.080;2024-02-21T05:16:25;22.45;;;5.43;;
39078;SDS011;24829;49.208;12.080;2024-02-21T05:18:51;16.52;;;4.78;;
39078;SDS011;24829;49.208;12.080;2024-02-21T05:21:17;24.42;;;6.00;;
39078;SDS011;24829;49.208;12.080;2024-02-21T05:23:42;14.23;;;5.57;;
39078;SDS011;24829;49.208;12.080;2024-02-21T05:26:08;12.23;;;5.22;;
39078;SDS011;24829;49.208;12.080;2024-02-21T05:28:34;19.00;;;5.07;;
39078;SDS011;24829;49.208;12.080;2024-02-21T05:31:00;17.27;;;4.97;;
39078;SDS011;24829;49.208;12.080;2024-02-21T05:33:25;15.60;;;5.50;;
39078;SDS011;24829;49.208;12.080;2024-02-21T05:35:52;17.20;;;5.20;;
39078;SDS011;24829;49.208;12.080;2024-02-21T05:38:17;15.50;;;5.20;;
39078;SDS011;24829;49.208;12.080;2024-02-21T05:40:46;13.40;;;4.28;;
39078;SDS011;24829;49.208;12.080;2024-02-21T05:43:12;14.68;;;4.68;;
39078;SDS011;24829;49.208;12.080;2024-02-21T05:45:38;17.23;;;5.30;;
39078;SDS011;24829;49.208;12.080;2024-02-21T05:48:04;18.13;;;5.30;;
39078;SDS011;24829;49.208;12.080;2024-02-21T05:50:30;18.80;;;5.82;;
39078;SDS011;24829;49.208;12.080;2024-02-21T05:52:56;16.10;;;4.03;;
39078;SDS011;24829;49.208;12.080;2024-02-21T05:55:22;14.45;;;5.22;;
39078;SDS011;24829;49.208;12.080;2024-02-21T05:57:48;10.32;;;4.25;;
39078;SDS011;24829;49.208;12.080;2024-02-21T06:00:14;15.50;;;4.38;;
39078;SDS011;24829;49.208;12.080;2024-02-21T06:02:40;13.13;;;4.38;;
39078;SDS011;24829;49.208;12.080;2024-02-21T06:05:07;16.58;;;4.70;;
39078;SDS011;24829;49.208;12.080;2024-02-21T06:07:33;12.93;;;3.90;;
39078;SDS011;24829;49.208;12.080;2024-02-21T06:10:02;15.57;;;3.97;;
39078;SDS011;24829;49.208;12.080;2024-02-21T06:12:28;16.60;;;5.10;;
39078;SDS011;24829;49.208;12.080;2024-02-21T06:14:53;11.50;;;3.83;;
39078;SDS011;24829;49.208;12.080;2024-02-21T06:17:19;14.73;;;3.78;;
39078;SDS011;24829;49.208;12.080;2024-02-21T06:19:45;14.77;;;3.92;;
39078;SDS011;24829;49.208;12.080;2024-02-21T06:22:11;17.83;;;4.38;;
39078;SDS011;24829;49.208;12.080;2024-02-21T06:24:37;19.00;;;4.65;;
39078;SDS011;24829;49.208;12.080;2024-02-21T06:27:03;13.15;;;3.53;;
39078;SDS011;24829;49.208;12.080;2024-02-21T06:29:32;10.52;;;3.80;;
39078;SDS011;24829;49.208;12.080;2024-02-21T06:31:58;13.73;;;4.50;;
39078;SDS011;24829;49.208;12.080;2024-02-21T06:34:23;14.18;;;3.88;;
39078;SDS011;24829;49.208;12.080;2024-02-21T06:36:49;10.40;;;4.60;;
39078;SDS011;24829;49.208;12.080;2024-02-21T06:39:15;14.75;;;3.55;;
39078;SDS011;24829;49.208;12.080;2024-02-21T06:41:41;11.30;;;3.60;;
39078;SDS011;24829;49.208;12.080;2024-02-21T06:44:06;12.00;;;3.78;;
39078;SDS011;24829;49.208;12.080;2024-02-21T06:46:32;15.73;;;4.40;;
39078;SDS011;24829;49.208;12.080;2024-02-21T06:48:58;15.55;;;3.80;;
39078;SDS011;24829;49.208;12.080;2024-02-21T06:51:31;10.85;;;4.20;;
39078;SDS011;24829;49.208;12.080;2024-02-21T06:53:56;9.93;;;3.80;;
39078;SDS011;24829;49.208;12.080;2024-02-21T06:56:23;11.98;;;3.83;;
39078;SDS011;24829;49.208;12.080;2024-02-21T06:58:54;12.02;;;3.65;;
39078;SDS011;24829;49.208;12.080;2024-02-21T07:01:23;14.43;;;4.57;;
39078;SDS011;24829;49.208;12.080;2024-02-21T07:03:49;11.27;;;3.28;;
39078;SDS011;24829;49.208;12.080;2024-02-21T07:06:15;51.47;;;30.25;;
39078;SDS011;24829;49.208;12.080;2024-02-21T07:08:40;27.05;;;13.23;;
39078;SDS011;24829;49.208;12.080;2024-02-21T07:11:06;19.92;;;7.07;;
39078;SDS011;24829;49.208;12.080;2024-02-21T07:13:32;14.85;;;5.57;;
39078;SDS011;24829;49.208;12.080;2024-02-21T07:15:57;18.05;;;6.13;;
39078;SDS011;24829;49.208;12.080;2024-02-21T07:18:23;20.13;;;8.43;;
39078;SDS011;24829;49.208;12.080;2024-02-21T07:20:50;21.55;;;8.25;;
39078;SDS011;24829;49.208;12.080;2024-02-21T07:23:16;20.67;;;6.38;;
39078;SDS011;24829;49.208;12.080;2024-02-21T07:25:43;14.98;;;7.68;;
39078;SDS011;24829;49.208;12.080;2024-02-21T07:28:08;22.00;;;11.50;;
39078;SDS011;24829;49.208;12.080;2024-02-21T07:30:34;18.60;;;6.35;;
39078;SDS011;24829;49.208;12.080;2024-02-21T07:33:00;13.55;;;6.28;;
39078;SDS011;24829;49.208;12.080;2024-02-21T07:35:25;18.60;;;5.22;;
39078;SDS011;24829;49.208;12.080;2024-02-21T07:37:51;21.27;;;5.82;;
39078;SDS011;24829;49.208;12.080;2024-02-21T07:40:17;15.75;;;4.78;;
39078;SDS011;24829;49.208;12.080;2024-02-21T07:42:43;16.58;;;6.82;;
39078;SDS011;24829;49.208;12.080;2024-02-21T07:45:09;15.70;;;4.63;;
39078;SDS011;24829;49.208;12.080;2024-02-21T07:47:35;12.38;;;4.75;;
39078;SDS011;24829;49.208;12.080;2024-02-21T07:50:04;14.73;;;4.63;;
39078;SDS011;24829;49.208;12.080;2024-02-21T07:52:30;12.75;;;3.85;;
39078;SDS011;24829;49.208;12.080;2024-02-21T07:54:56;12.02;;;3.95;;
39078;SDS011;24829;49.208;12.080;2024-02-21T07:57:22;13.35;;;4.28;;
39078;SDS011;24829;49.208;12.080;2024-02-21T07:59:48;13.60;;;3.47;;
39078;SDS011;24829;49.208;12.080;2024-02-21T08:02:16;10.35;;;3.67;;
39078;SDS011;24829;49.208;12.080;2024-02-21T08:04:42;12.77;;;3.63;;
39078;SDS011;24829;49.208;12.080;2024-02-21T08:07:08;10.23;;;3.83;;
39078;SDS011;24829;49.208;12.080;2024-02-21T08:09:34;14.85;;;3.95;;
39078;SDS011;24829;49.208;12.080;2024-02-21T08:12:01;16.17;;;3.83;;
39078;SDS011;24829;49.208;12.080;2024-02-21T08:14:27;16.98;;;4.88;;
39078;SDS011;24829;49.208;12.080;2024-02-21T08:16:53;18.50;;;4.90;;
39078;SDS011;24829;49.208;12.080;2024-02-21T08:19:20;13.07;;;4.28;;
39078;SDS011;24829;49.208;12.080;2024-02-21T08:21:47;13.90;;;4.22;;
39078;SDS011;24829;49.208;12.080;2024-02-21T08:24:13;13.18;;;4.68;;
39078;SDS011;24829;49.208;12.080;2024-02-21T08:26:43;15.55;;;4.88;;
39078;SDS011;24829;49.208;12.080;2024-02-21T08:31:37;7.68;;;3.22;;
39078;SDS011;24829;49.208;12.080;2024-02-21T08:34:03;11.48;;;4.07;;
39078;SDS011;24829;49.208;12.080;2024-02-21T08:36:29;10.18;;;4.32;;
39078;SDS011;24829;49.208;12.080;2024-02-21T08:38:59;18.67;;;4.22;;
39078;SDS011;24829;49.208;12.080;2024-02-21T08:41:26;12.77;;;3.85;;
39078;SDS011;24829;49.208;12.080;2024-02-21T08:43:52;14.45;;;4.53;;
39078;SDS011;24829;49.208;12.080;2024-02-21T08:46:19;12.20;;;3.50;;
39078;SDS011;24829;49.208;12.080;2024-02-21T08:48:46;10.20;;;3.25;;
39078;SDS011;24829;49.208;12.080;2024-02-21T08:51:15;10.43;;;3.70;;
39078;SDS011;24829;49.208;12.080;2024-02-21T08:53:40;12.57;;;3.53;;
39078;SDS011;24829;49.208;12.080;2024-02-21T08:56:06;13.25;;;3.40;;
39078;SDS011;24829;49.208;12.080;2024-02-21T08:58:35;14.55;;;3.47;;
39078;SDS011;24829;49.208;12.080;2024-02-21T09:01:04;12.93;;;3.05;;
39078;SDS011;24829;49.208;12.080;2024-02-21T09:03:32;9.68;;;3.03;;
39078;SDS011;24829;49.208;12.080;2024-02-21T09:05:58;8.95;;;3.15;;
39078;SDS011;24829;49.208;12.080;2024-02-21T09:08:24;13.93;;;3.28;;
39078;SDS011;24829;49.208;12.080;2024-02-21T09:10:50;11.73;;;3.63;;
39078;SDS011;24829;49.208;12.080;2024-02-21T09:13:16;10.57;;;3.25;;
39078;SDS011;24829;49.208;12.080;2024-02-21T09:15:42;10.77;;;3.00;;
39078;SDS011;24829;49.208;12.080;2024-02-21T09:18:08;9.40;;;2.72;;
39078;SDS011;24829;49.208;12.080;2024-02-21T09:20:33;12.98;;;3.35;;
39078;SDS011;24829;49.208;12.080;2024-02-21T09:22:59;15.95;;;3.78;;
39078;SDS011;24829;49.208;12.080;2024-02-21T09:25:24;11.02;;;3.17;;
39078;SDS011;24829;49.208;12.080;2024-02-21T09:27:50;12.63;;;3.55;;
39078;SDS011;24829;49.208;12.080;2024-02-21T09:30:19;15.20;;;2.92;;
39078;SDS011;24829;49.208;12.080;2024-02-21T09:32:45;9.18;;;2.88;;
39078;SDS011;24829;49.208;12.080;2024-02-21T09:35:10;9.65;;;2.75;;
39078;SDS011;24829;49.208;12.080;2024-02-21T09:37:37;11.63;;;3.20;;
39078;SDS011;24829;49.208;12.080;2024-02-21T09:40:04;9.07;;;2.53;;
39078;SDS011;24829;49.208;12.080;2024-02-21T09:42:37;14.88;;;3.28;;
39078;SDS011;24829;49.208;12.080;2024-02-21T09:50:25;11.68;;;2.28;;
39078;SDS011;24829;49.208;12.080;2024-02-21T09:52:52;9.27;;;2.78;;
39078;SDS011;24829;49.208;12.080;2024-02-21T09:55:20;8.75;;;2.72;;
39078;SDS011;24829;49.208;12.080;2024-02-21T09:57:46;11.93;;;2.60;;
39078;SDS011;24829;49.208;12.080;2024-02-21T10:00:13;13.48;;;2.88;;
39078;SDS011;24829;49.208;12.080;2024-02-21T10:05:15;9.43;;;1.95;;
39078;SDS011;24829;49.208;12.080;2024-02-21T10:07:42;9.55;;;1.95;;
39078;SDS011;24829;49.208;12.080;2024-02-21T10:10:08;7.82;;;1.95;;
39078;SDS011;24829;49.208;12.080;2024-02-21T10:12:35;6.53;;;1.40;;
39078;SDS011;24829;49.208;12.080;2024-02-21T10:15:04;9.75;;;1.92;;
39078;SDS011;24829;49.208;12.080;2024-02-21T10:17:31;8.48;;;1.38;;
39078;SDS011;24829;49.208;12.080;2024-02-21T10:20:07;9.48;;;1.67;;
39078;SDS011;24829;49.208;12.080;2024-02-21T10:22:34;6.05;;;1.35;;
39078;SDS011;24829;49.208;12.080;2024-02-21T10:25:10;6.22;;;1.40;;
39078;SDS011;24829;49.208;12.080;2024-02-21T10:27:37;9.50;;;1.55;;
39078;SDS011;24829;49.208;12.080;2024-02-21T10:30:07;7.22;;;1.27;;
39078;SDS011;24829;49.208;12.080;2024-02-21T10:32:37;5.93;;;1.50;;
39078;SDS011;24829;49.208;12.080;2024-02-21T10:35:30;9.95;;;1.63;;
39078;SDS011;24829;49.208;12.080;2024-02-21T10:37:57;8.98;;;1.40;;
39078;SDS011;24829;49.208;12.080;2024-02-21T10:40:30;8.77;;;1.92;;
39078;SDS011;24829;49.208;12.080;2024-02-21T10:43:02;7.18;;;1.40;;
39078;SDS011;24829;49.208;12.080;2024-02-21T10:45:34;6.95;;;1.45;;
39078;SDS011;24829;49.208;12.080;2024-02-21T10:48:13;7.10;;;1.30;;
39078;SDS011;24829;49.208;12.080;2024-02-21T10:56:26;6.10;;;2.13;;
39078;SDS011;24829;49.208;12.080;2024-02-21T10:58:55;4.97;;;1.20;;
39078;SDS011;24829;49.208;12.080;2024-02-21T11:01:25;4.82;;;1.10;;
39078;SDS011;24829;49.208;12.080;2024-02-21T11:03:54;5.95;;;1.83;;
39078;SDS011;24829;49.208;12.080;2024-02-21T11:06:21;5.18;;;1.20;;
39078;SDS011;24829;49.208;12.080;2024-02-21T11:08:47;9.63;;;1.90;;
39078;SDS011;24829;49.208;12.080;2024-02-21T11:11:23;5.82;;;1.33;;
39078;SDS011;24829;49.208;12.080;2024-02-21T11:13:49;8.07;;;1.67;;
39078;SDS011;24829;49.208;12.080;2024-02-21T11:16:21;11.05;;;1.90;;
39078;SDS011;24829;49.208;12.080;2024-02-21T11:18:48;8.38;;;1.38;;
39078;SDS011;24829;49.208;12.080;2024-02-21T11:21:14;6.85;;;1.50;;
39078;SDS011;24829;49.208;12.080;2024-02-21T11:23:40;10.18;;;1.60;;
39078;SDS011;24829;49.208;12.080;2024-02-21T11:26:09;7.45;;;1.70;;
39078;SDS011;24829;49.208;12.080;2024-02-21T11:28:44;10.88;;;1.70;;
39078;SDS011;24829;49.208;12.080;2024-02-21T11:31:13;11.18;;;1.60;;
39078;SDS011;24829;49.208;12.080;2024-02-21T11:33:42;10.73;;;1.88;;
39078;SDS011;24829;49.208;12.080;2024-02-21T11:36:08;5.75;;;1.15;;
39078;SDS011;24829;49.208;12.080;2024-02-21T11:38:35;4.53;;;1.10;;
39078;SDS011;24829;49.208;12.080;2024-02-21T11:41:01;6.20;;;1.27;;
39078;SDS011;24829;49.208;12.080;2024-02-21T11:43:27;3.65;;;1.08;;
39078;SDS011;24829;49.208;12.080;2024-02-21T11:46:01;6.20;;;1.23;;
39078;SDS011;24829;49.208;12.080;2024-02-21T11:48:28;4.50;;;1.70;;
39078;SDS011;24829;49.208;12.080;2024-02-21T11:50:55;5.90;;;1.10;;
39078;SDS011;24829;49.208;12.080;2024-02-21T11:53:21;4.43;;;1.20;;
39078;SDS011;24829;49.208;12.080;2024-02-21T11:55:47;6.88;;;1.63;;
39078;SDS011;24829;49.208;12.080;2024-02-21T11:58:13;6.47;;;1.20;;
39078;SDS011;24829;49.208;12.080;2024-02-21T12:00:40;5.72;;;1.60;;
39078;SDS011;24829;49.208;12.080;2024-02-21T12:03:06;4.05;;;1.35;;
39078;SDS011;24829;49.208;12.080;2024-02-21T12:05:32;5.03;;;1.33;;
39078;SDS011;24829;49.208;12.080;2024-02-21T12:07:58;7.25;;;1.20;;
39078;SDS011;24829;49.208;12.080;2024-02-21T12:10:25;4.40;;;1.10;;
39078;SDS011;24829;49.208;12.080;2024-02-21T12:12:52;3.22;;;1.13;;
39078;SDS011;24829;49.208;12.080;2024-02-21T12:15:19;4.03;;;1.38;;
39078;SDS011;24829;49.208;12.080;2024-02-21T12:17:45;3.45;;;0.80;;
39078;SDS011;24829;49.208;12.080;2024-02-21T12:20:11;6.88;;;0.93;;
39078;SDS011;24829;49.208;12.080;2024-02-21T12:22:41;3.22;;;0.73;;
39078;SDS011;24829;49.208;12.080;2024-02-21T12:25:16;2.30;;;0.80;;
39078;SDS011;24829;49.208;12.080;2024-02-21T12:27:47;5.93;;;1.33;;
39078;SDS011;24829;49.208;12.080;2024-02-21T12:30:14;5.43;;;0.90;;
39078;SDS011;24829;49.208;12.080;2024-02-21T12:32:40;3.55;;;1.13;;
39078;SDS011;24829;49.208;12.080;2024-02-21T12:35:06;3.05;;;1.02;;
39078;SDS011;24829;49.208;12.080;2024-02-21T12:37:32;4.15;;;0.90;;
39078;SDS011;24829;49.208;12.080;2024-02-21T12:39:58;3.22;;;0.75;;
39078;SDS011;24829;49.208;12.080;2024-02-21T12:42:24;7.22;;;1.60;;
39078;SDS011;24829;49.208;12.080;2024-02-21T12:44:51;2.20;;;0.77;;
39078;SDS011;24829;49.208;12.080;2024-02-21T12:47:19;3.17;;;0.80;;
39078;SDS011;24829;49.208;12.080;2024-02-21T12:49:48;3.70;;;1.00;;
39078;SDS011;24829;49.208;12.080;2024-02-21T12:52:14;4.50;;;0.98;;
39078;SDS011;24829;49.208;12.080;2024-02-21T12:54:40;6.43;;;1.25;;
39078;SDS011;24829;49.208;12.080;2024-02-21T12:57:05;10.15;;;1.30;;
39078;SDS011;24829;49.208;12.080;2024-02-21T12:59:31;4.63;;;0.80;;
39078;SDS011;24829;49.208;12.080;2024-02-21T13:01:56;4.50;;;1.00;;
39078;SDS011;24829;49.208;12.080;2024-02-21T13:04:22;1.80;;;0.70;;
39078;SDS011;24829;49.208;12.080;2024-02-21T13:06:48;3.20;;;0.70;;
39078;SDS011;24829;49.208;12.080;2024-02-21T13:09:14;4.90;;;1.15;;
39078;SDS011;24829;49.208;12.080;2024-02-21T13:11:40;4.50;;;1.30;;
39078;SDS011;24829;49.208;12.080;2024-02-21T13:14:06;8.18;;;1.50;;
39078;SDS011;24829;49.208;12.080;2024-02-21T13:16:32;5.82;;;1.20;;
39078;SDS011;24829;49.208;12.080;2024-02-21T13:19:04;4.47;;;1.40;;
39078;SDS011;24829;49.208;12.080;2024-02-21T13:21:35;2.65;;;0.80;;
39078;SDS011;24829;49.208;12.080;2024-02-21T13:24:01;5.20;;;1.63;;
39078;SDS011;24829;49.208;12.080;2024-02-21T13:26:27;9.20;;;1.40;;
39078;SDS011;24829;49.208;12.080;2024-02-21T13:28:53;5.78;;;1.30;;
39078;SDS011;24829;49.208;12.080;2024-02-21T13:31:18;8.82;;;1.33;;
39078;SDS011;24829;49.208;12.080;2024-02-21T13:33:44;6.20;;;1.33;;
39078;SDS011;24829;49.208;12.080;2024-02-21T13:36:10;6.43;;;1.00;;
39078;SDS011;24829;49.208;12.080;2024-02-21T13:38:36;5.47;;;1.30;;
39078;SDS011;24829;49.208;12.080;2024-02-21T13:41:03;3.63;;;0.82;;
39078;SDS011;24829;49.208;12.080;2024-02-21T13:43:30;4.93;;;1.05;;
39078;SDS011;24829;49.208;12.080;2024-02-21T13:45:59;6.22;;;1.17;;
39078;SDS011;24829;49.208;12.080;2024-02-21T13:48:27;4.53;;;0.98;;
39078;SDS011;24829;49.208;12.080;2024-02-21T13:50:54;5.55;;;1.75;;
39078;SDS011;24829;49.208;12.080;2024-02-21T13:53:20;4.10;;;0.98;;
39078;SDS011;24829;49.208;12.080;2024-02-21T13:55:46;3.03;;;0.98;;
39078;SDS011;24829;49.208;12.080;2024-02-21T13:58:12;3.40;;;1.30;;
39078;SDS011;24829;49.208;12.080;2024-02-21T14:00:38;5.18;;;0.93;;
39078;SDS011;24829;49.208;12.080;2024-02-21T14:03:03;4.20;;;1.20;;
39078;SDS011;24829;49.208;12.080;2024-02-21T14:05:29;3.05;;;0.88;;
39078;SDS011;24829;49.208;12.080;2024-02-21T14:07:55;3.80;;;1.13;;
39078;SDS011;24829;49.208;12.080;2024-02-21T14:10:21;6.07;;;1.35;;
39078;SDS011;24829;49.208;12.080;2024-02-21T14:12:47;6.43;;;0.90;;
39078;SDS011;24829;49.208;12.080;2024-02-21T14:15:15;4.70;;;1.00;;
39078;SDS011;24829;49.208;12.080;2024-02-21T14:17:43;5.05;;;1.40;;
39078;SDS011;24829;49.208;12.080;2024-02-21T14:20:09;3.30;;;0.98;;
39078;SDS011;24829;49.208;12.080;2024-02-21T14:22:35;5.45;;;1.13;;
39078;SDS011;24829;49.208;12.080;2024-02-21T14:25:02;6.40;;;1.95;;
39078;SDS011;24829;49.208;12.080;2024-02-21T14:27:30;5.32;;;1.10;;
39078;SDS011;24829;49.208;12.080;2024-02-21T14:29:56;4.88;;;1.13;;
39078;SDS011;24829;49.208;12.080;2024-02-21T14:32:22;3.67;;;0.90;;
39078;SDS011;24829;49.208;12.080;2024-02-21T14:34:47;5.53;;;0.90;;
39078;SDS011;24829;49.208;12.080;2024-02-21T14:37:14;6.82;;;1.10;;
39078;SDS011;24829;49.208;12.080;2024-02-21T14:39:39;1.92;;;0.95;;
39078;SDS011;24829;49.208;12.080;2024-02-21T14:42:06;4.35;;;1.20;;